Time;durP1;ratioP1;P1;durP2;ratioP2;P2;SDS_P1;SDS_P2;PMS_P1;PMS_P2;Temp;Humidity;BMP_temperature;BMP_pressure;BME280_temperature;BME280_humidity;BME280_pressure;Samples;Min_cycle;Max_cycle;Signal;HPM_P1;HPM_P2
2023/10/01 00:01:42;;;;;;;5.10;4.43;;;25.10;67.80;;;;;;5102713;28;20463;-69
2023/10/01 00:04:11;;;;;;;5.17;4.27;;;25.10;67.80;;;;;;5099087;28;20449;-69
2023/10/01 00:06:40;;;;;;;4.60;4.20;;;25.20;67.80;;;;;;5100102;28;20456;-69
2023/10/01 00:09:09;;;;;;;6.97;5.40;;;25.10;67.80;;;;;;5092901;28;20463;-69
2023/10/01 00:11:38;;;;;;;5.80;4.57;;;25.10;67.80;;;;;;5097262;28;20464;-69
2023/10/01 00:14:08;;;;;;;4.93;4.23;;;25.10;67.80;;;;;;5099808;28;20451;-70
2023/10/01 00:16:53;;;;;;;5.27;3.90;;;25.10;67.80;;;;;;5101895;27;20488;-69
2023/10/01 00:19:21;;;;;;;5.13;4.17;;;25.10;67.90;;;;;;5095782;28;20453;-70
2023/10/01 00:21:49;;;;;;;5.20;4.63;;;25.10;67.90;;;;;;5090879;28;20453;-70
2023/10/01 00:24:17;;;;;;;5.03;4.53;;;25.10;67.90;;;;;;5100557;28;20444;-69
2023/10/01 00:26:46;;;;;;;5.47;4.10;;;25.10;67.90;;;;;;5092565;28;20544;-69
2023/10/01 00:29:15;;;;;;;4.73;3.73;;;25.10;67.90;;;;;;5099390;28;20504;-69
2023/10/01 00:31:45;;;;;;;5.07;4.57;;;25.10;67.90;;;;;;5103675;28;21021;-69
2023/10/01 00:34:14;;;;;;;7.43;5.27;;;25.10;67.90;;;;;;5095617;28;20453;-70
2023/10/01 00:36:44;;;;;;;4.50;4.10;;;25.10;67.90;;;;;;5092029;28;20468;-69
2023/10/01 00:39:12;;;;;;;4.43;4.00;;;25.10;67.90;;;;;;5100608;28;20445;-69
2023/10/01 00:41:40;;;;;;;5.53;4.50;;;25.10;67.90;;;;;;5095302;28;20650;-69
2023/10/01 00:44:09;;;;;;;5.03;4.53;;;25.10;67.90;;;;;;5099164;28;20452;-70
2023/10/01 00:46:39;;;;;;;4.40;3.80;;;25.10;67.90;;;;;;5088026;28;20459;-70
2023/10/01 00:49:08;;;;;;;4.63;4.03;;;25.10;67.90;;;;;;5095840;28;20471;-69
2023/10/01 00:51:36;;;;;;;5.10;4.60;;;25.10;67.90;;;;;;5112250;28;20539;-69
2023/10/01 00:54:05;;;;;;;4.90;4.30;;;25.10;67.90;;;;;;5108424;28;20526;-70
2023/10/01 00:56:34;;;;;;;4.57;3.60;;;25.10;67.90;;;;;;5119201;27;20836;-70
2023/10/01 00:59:03;;;;;;;4.33;3.70;;;25.10;67.90;;;;;;5096227;28;20456;-69
2023/10/01 01:01:33;;;;;;;9.17;4.70;;;25.00;67.90;;;;;;5114833;28;20859;-69
2023/10/01 01:04:09;;;;;;;6.53;4.40;;;25.00;67.90;;;;;;5115422;28;20450;-69
2023/10/01 01:06:39;;;;;;;3.90;3.50;;;25.00;67.90;;;;;;5102326;28;20492;-69
2023/10/01 01:09:11;;;;;;;4.50;3.70;;;25.00;67.90;;;;;;5104483;28;20458;-70
2023/10/01 01:11:40;;;;;;;4.57;4.17;;;25.00;67.90;;;;;;5104823;27;20452;-69
2023/10/01 01:14:09;;;;;;;4.93;4.50;;;25.00;67.90;;;;;;5105481;27;20507;-69
2023/10/01 01:16:37;;;;;;;4.60;4.20;;;25.00;68.00;;;;;;5085254;28;21022;-69
2023/10/01 01:19:09;;;;;;;6.07;5.07;;;25.00;68.00;;;;;;5093676;28;20485;-69
2023/10/01 01:21:41;;;;;;;5.13;3.83;;;25.00;68.00;;;;;;5096668;28;20461;-69
2023/10/01 01:24:11;;;;;;;4.80;4.13;;;25.00;68.00;;;;;;5107670;28;20455;-70
2023/10/01 01:26:43;;;;;;;8.50;4.67;;;25.00;68.00;;;;;;5100955;28;20460;-70
2023/10/01 01:29:18;;;;;;;5.70;4.90;;;25.00;68.00;;;;;;5100239;28;20526;-69
2023/10/01 01:31:46;;;;;;;5.23;4.37;;;25.00;68.00;;;;;;5091822;28;20490;-69
2023/10/01 01:34:15;;;;;;;6.33;4.60;;;25.00;68.00;;;;;;5099524;28;21003;-69
2023/10/01 01:36:43;;;;;;;4.63;4.10;;;25.00;68.00;;;;;;5079518;28;20490;-69
2023/10/01 01:39:27;;;;;;;6.13;3.90;;;25.00;68.00;;;;;;5102719;28;20521;-69
2023/10/01 01:41:57;;;;;;;4.47;3.90;;;25.00;68.00;;;;;;5106531;27;20462;-69
2023/10/01 01:44:25;;;;;;;4.37;3.97;;;24.90;68.00;;;;;;5101485;28;20468;-69
2023/10/01 01:47:00;;;;;;;5.50;4.67;;;25.00;68.00;;;;;;5098838;28;20531;-69
2023/10/01 01:49:32;;;;;;;6.60;4.60;;;24.90;68.00;;;;;;5095886;28;20543;-69
2023/10/01 01:52:03;;;;;;;5.00;4.50;;;25.00;68.00;;;;;;5094929;28;20449;-69
2023/10/01 01:54:37;;;;;;;5.10;4.57;;;24.90;68.00;;;;;;5105819;28;20533;-69
2023/10/01 01:57:12;;;;;;;4.83;3.90;;;24.90;68.00;;;;;;5095082;28;20456;-69
2023/10/01 01:59:41;;;;;;;5.30;4.33;;;24.90;68.00;;;;;;5077123;28;20469;-69
2023/10/01 02:02:11;;;;;;;5.10;4.03;;;24.90;68.00;;;;;;5079782;28;20446;-69
2023/10/01 02:04:58;;;;;;;5.07;4.57;;;24.90;68.00;;;;;;5103918;28;20485;-69
2023/10/01 02:07:33;;;;;;;4.50;4.03;;;24.90;68.00;;;;;;5097329;28;20449;-69
2023/10/01 02:10:06;;;;;;;4.37;3.83;;;24.90;68.00;;;;;;5100363;28;20500;-69
2023/10/01 02:12:36;;;;;;;4.40;3.80;;;24.90;68.00;;;;;;5087361;28;20515;-69
2023/10/01 02:15:08;;;;;;;3.50;3.20;;;24.90;68.10;;;;;;5113681;27;20498;-69
2023/10/01 02:17:36;;;;;;;5.50;3.80;;;24.90;68.10;;;;;;5105948;27;20468;-69
2023/10/01 02:20:22;;;;;;;4.77;4.23;;;24.90;68.10;;;;;;5099764;28;20451;-69
2023/10/01 02:22:51;;;;;;;5.57;4.00;;;24.90;68.10;;;;;;5102961;28;20456;-69
2023/10/01 02:25:36;;;;;;;4.33;3.90;;;24.90;68.10;;;;;;5094943;28;20572;-70
2023/10/01 02:28:13;;;;;;;4.07;3.47;;;24.90;68.10;;;;;;5098059;28;20491;-69
2023/10/01 02:30:44;;;;;;;3.90;3.50;;;24.90;68.10;;;;;;5109233;28;20535;-69
2023/10/01 02:33:19;;;;;;;4.13;3.83;;;24.90;68.10;;;;;;5088464;28;20937;-69
2023/10/01 02:35:50;;;;;;;4.27;3.70;;;24.80;68.10;;;;;;5103766;28;20461;-70
2023/10/01 02:41:08;;;;;;;4.33;3.90;;;24.80;68.10;;;;;;5096384;28;20451;-70
2023/10/01 02:43:41;;;;;;;5.63;4.00;;;24.80;68.10;;;;;;5083374;28;20453;-69
2023/10/01 02:46:12;;;;;;;4.73;4.20;;;24.80;68.10;;;;;;5104914;28;20909;-70
2023/10/01 02:48:40;;;;;;;4.30;3.90;;;24.80;68.10;;;;;;5089692;28;20477;-70
2023/10/01 02:51:16;;;;;;;5.10;4.60;;;24.80;68.10;;;;;;5098026;27;20503;-69
2023/10/01 02:54:03;;;;;;;4.80;4.00;;;24.80;68.10;;;;;;5081825;28;20957;-69
2023/10/01 02:56:34;;;;;;;4.80;3.90;;;24.80;68.10;;;;;;5085522;28;20522;-69
2023/10/01 02:59:08;;;;;;;3.93;3.53;;;24.80;68.10;;;;;;5104064;28;20564;-69
2023/10/01 03:01:38;;;;;;;5.30;4.00;;;24.80;68.10;;;;;;5094946;28;20862;-69
2023/10/01 03:04:10;;;;;;;5.10;4.13;;;24.80;68.10;;;;;;5104922;28;20972;-69
2023/10/01 03:06:47;;;;;;;5.30;3.80;;;24.80;68.10;;;;;;5083891;28;20479;-69
2023/10/01 03:09:29;;;;;;;5.87;3.73;;;24.80;68.10;;;;;;5098355;28;20505;-69
2023/10/01 03:12:24;;;;;;;4.53;4.00;;;24.80;68.10;;;;;;5098170;28;20452;-69
2023/10/01 03:15:00;;;;;;;4.10;3.70;;;24.80;68.10;;;;;;5104612;27;20462;-69
2023/10/01 03:17:34;;;;;;;4.07;3.77;;;24.80;68.10;;;;;;5093434;28;20490;-69
2023/10/01 03:20:19;;;;;;;4.60;4.17;;;24.80;68.10;;;;;;5102837;28;20454;-69
2023/10/01 03:22:53;;;;;;;4.73;4.03;;;24.70;68.10;;;;;;5091776;28;20479;-69
2023/10/01 03:25:27;;;;;;;4.90;4.00;;;24.70;68.10;;;;;;5095169;28;20457;-69
2023/10/01 03:27:58;;;;;;;5.67;4.50;;;24.70;68.10;;;;;;5095944;28;20457;-69
2023/10/01 03:30:32;;;;;;;6.13;4.13;;;24.70;68.10;;;;;;5098675;27;20470;-69
2023/10/01 03:33:07;;;;;;;5.10;4.30;;;24.70;68.10;;;;;;5078780;28;20541;-69
2023/10/01 03:35:36;;;;;;;4.70;4.20;;;24.70;68.10;;;;;;5082495;28;20545;-70
2023/10/01 03:38:10;;;;;;;5.70;4.50;;;24.70;68.10;;;;;;5094368;28;20461;-70
2023/10/01 03:40:58;;;;;;;3.57;3.27;;;24.70;68.10;;;;;;5091080;28;20458;-70
2023/10/01 03:43:36;;;;;;;5.53;4.80;;;24.70;68.10;;;;;;5082747;28;20455;-69
2023/10/01 03:46:13;;;;;;;4.87;4.40;;;24.70;68.10;;;;;;5128427;27;21000;-69
2023/10/01 03:48:57;;;;;;;4.40;4.00;;;24.70;68.20;;;;;;5132859;27;20942;-69
2023/10/01 03:54:14;;;;;;;4.13;3.40;;;24.70;68.10;;;;;;5115894;27;20470;-69
2023/10/01 03:56:56;;;;;;;4.07;3.67;;;24.70;68.20;;;;;;5100809;28;20787;-69
2023/10/01 03:59:28;;;;;;;3.90;3.03;;;24.70;68.20;;;;;;5098738;27;20472;-69
2023/10/01 04:01:58;;;;;;;4.93;4.10;;;24.70;68.20;;;;;;5110987;28;20444;-69
2023/10/01 04:04:31;;;;;;;4.53;3.60;;;24.70;68.20;;;;;;5105338;28;20455;-69
2023/10/01 04:07:09;;;;;;;5.00;4.17;;;24.70;68.20;;;;;;5111846;28;20449;-70
2023/10/01 04:09:46;;;;;;;3.90;3.60;;;24.70;68.20;;;;;;5112112;28;20429;-69
2023/10/01 04:12:19;;;;;;;4.00;3.60;;;24.70;68.20;;;;;;5110790;28;20451;-69
2023/10/01 04:14:52;;;;;;;6.17;4.50;;;24.70;68.20;;;;;;5118447;27;20503;-69
2023/10/01 04:17:25;;;;;;;4.97;3.83;;;24.60;68.20;;;;;;5090422;28;20511;-69
2023/10/01 04:20:00;;;;;;;4.87;4.07;;;24.60;68.20;;;;;;5101258;28;20470;-69
2023/10/01 04:22:29;;;;;;;5.40;3.80;;;24.60;68.20;;;;;;5091526;28;20457;-70
2023/10/01 04:25:10;;;;;;;4.30;3.90;;;24.60;68.20;;;;;;5104400;28;20458;-69
2023/10/01 04:27:41;;;;;;;4.40;4.00;;;24.60;68.20;;;;;;5103788;27;20463;-69
2023/10/01 04:30:14;;;;;;;5.07;4.13;;;24.60;68.20;;;;;;5089835;28;20557;-69
2023/10/01 04:32:43;;;;;;;5.13;4.57;;;24.60;68.20;;;;;;5102152;28;20460;-69
2023/10/01 04:35:14;;;;;;;4.10;3.70;;;24.60;68.20;;;;;;5089355;28;20810;-69
2023/10/01 04:37:48;;;;;;;5.40;4.17;;;24.60;68.20;;;;;;5096203;28;20510;-69
2023/10/01 04:40:39;;;;;;;4.30;3.90;;;24.60;68.20;;;;;;5101067;28;21094;-69
2023/10/01 04:43:10;;;;;;;5.10;4.17;;;24.60;68.20;;;;;;5110656;28;20815;-69
2023/10/01 04:45:41;;;;;;;3.77;3.43;;;24.60;68.20;;;;;;5100251;28;20972;-69
2023/10/01 04:48:17;;;;;;;5.20;4.60;;;24.60;68.20;;;;;;5104123;28;20474;-69
2023/10/01 04:50:46;;;;;;;4.53;4.10;;;24.60;68.20;;;;;;5093192;28;20462;-69
2023/10/01 04:53:15;;;;;;;4.80;4.30;;;24.60;68.20;;;;;;5099920;28;20469;-69
2023/10/01 04:55:43;;;;;;;4.93;4.20;;;24.60;68.20;;;;;;5109076;28;20450;-70
2023/10/01 04:58:14;;;;;;;4.67;4.17;;;24.60;68.20;;;;;;5090791;28;20430;-69
2023/10/01 05:00:45;;;;;;;3.43;3.13;;;24.60;68.20;;;;;;5088483;28;20582;-69
2023/10/01 05:03:15;;;;;;;4.70;4.20;;;24.50;68.20;;;;;;5100007;28;21006;-69
2023/10/01 05:05:45;;;;;;;5.30;4.20;;;24.50;68.20;;;;;;5099822;28;20468;-70
2023/10/01 05:08:13;;;;;;;5.47;4.60;;;24.50;68.20;;;;;;5090227;28;20573;-69
2023/10/01 05:10:51;;;;;;;4.87;3.77;;;24.50;68.20;;;;;;5104047;28;20448;-69
2023/10/01 05:13:22;;;;;;;4.23;3.83;;;24.50;68.20;;;;;;5098407;28;20457;-69
2023/10/01 05:15:56;;;;;;;5.27;4.13;;;24.50;68.20;;;;;;5092255;28;20459;-69
2023/10/01 05:18:26;;;;;;;4.53;3.47;;;24.50;68.20;;;;;;5095445;28;20465;-69
2023/10/01 05:20:58;;;;;;;4.20;3.80;;;24.50;68.20;;;;;;5096280;28;20499;-70
2023/10/01 05:23:27;;;;;;;5.90;4.07;;;24.50;68.20;;;;;;5099631;28;20997;-69
2023/10/01 05:25:56;;;;;;;5.50;4.77;;;24.50;68.20;;;;;;5090647;28;20933;-69
2023/10/01 05:28:31;;;;;;;4.87;3.70;;;24.50;68.20;;;;;;5095727;28;20559;-69
2023/10/01 05:31:05;;;;;;;4.30;3.90;;;24.50;68.20;;;;;;5103677;28;20551;-69
2023/10/01 05:33:34;;;;;;;3.93;3.10;;;24.50;68.20;;;;;;5094369;28;20450;-69
2023/10/01 05:36:05;;;;;;;3.80;3.40;;;24.50;68.20;;;;;;5107026;28;20462;-69
2023/10/01 05:38:36;;;;;;;4.10;3.50;;;24.50;68.10;;;;;;5102323;27;20947;-69
2023/10/01 05:41:05;;;;;;;4.73;4.13;;;24.50;68.10;;;;;;5109834;27;20452;-69
2023/10/01 05:43:37;;;;;;;3.90;3.40;;;24.50;68.10;;;;;;5098438;28;20485;-69
2023/10/01 05:46:09;;;;;;;4.10;3.70;;;24.50;68.10;;;;;;5105323;28;20509;-69
2023/10/01 05:48:39;;;;;;;4.17;3.77;;;24.50;68.20;;;;;;5106447;28;20453;-69
2023/10/01 05:51:11;;;;;;;5.30;4.17;;;24.50;68.20;;;;;;5109292;27;20442;-69
2023/10/01 05:53:40;;;;;;;4.53;3.90;;;24.50;68.20;;;;;;5103477;27;20463;-69
2023/10/01 05:56:11;;;;;;;3.77;3.47;;;24.50;68.00;;;;;;5104206;28;20491;-69
2023/10/01 05:58:39;;;;;;;5.17;4.67;;;24.50;68.20;;;;;;5098412;28;20451;-69
2023/10/01 06:01:15;;;;;;;4.83;4.40;;;24.50;68.00;;;;;;5105003;28;20481;-70
2023/10/01 06:03:44;;;;;;;4.50;3.93;;;24.50;68.00;;;;;;5099210;28;20480;-69
2023/10/01 06:06:14;;;;;;;3.60;3.30;;;24.50;68.00;;;;;;5082806;28;20875;-70
2023/10/01 06:08:49;;;;;;;4.33;3.43;;;24.50;68.00;;;;;;5101700;27;20464;-70
2023/10/01 06:11:18;;;;;;;4.63;3.83;;;24.50;68.10;;;;;;5096711;27;20479;-70
2023/10/01 06:13:51;;;;;;;10.00;4.57;;;24.50;68.00;;;;;;5103605;27;20465;-70
2023/10/01 06:16:23;;;;;;;9.63;5.13;;;24.50;70.80;;;;;;5099319;28;20455;-69
2023/10/01 06:18:56;;;;;;;8.63;5.03;;;24.50;71.30;;;;;;5098406;28;20444;-69
2023/10/01 06:21:27;;;;;;;5.57;4.40;;;24.50;70.90;;;;;;5100594;28;20485;-69
2023/10/01 06:23:58;;;;;;;5.27;3.93;;;24.50;69.70;;;;;;5101034;27;20466;-69
2023/10/01 06:26:33;;;;;;;4.77;4.37;;;24.50;68.40;;;;;;5102622;28;20530;-69
2023/10/01 06:29:02;;;;;;;4.50;4.00;;;24.50;67.90;;;;;;5102162;28;21005;-69
2023/10/01 06:31:47;;;;;;;5.40;4.50;;;24.40;67.70;;;;;;5101765;28;20445;-69
2023/10/01 06:34:19;;;;;;;5.13;4.63;;;24.40;67.30;;;;;;5102230;28;20532;-69
2023/10/01 06:36:51;;;;;;;5.27;4.43;;;24.40;67.20;;;;;;5092088;28;20452;-70
2023/10/01 06:39:20;;;;;;;11.03;4.57;;;24.40;68.00;;;;;;5098979;28;20459;-69
2023/10/01 06:41:49;;;;;;;8.37;4.77;;;24.30;67.70;;;;;;5107101;27;20531;-70
2023/10/01 06:44:19;;;;;;;6.50;4.83;;;24.30;67.10;;;;;;5100414;28;20459;-70
2023/10/01 06:46:50;;;;;;;6.50;4.70;;;24.30;67.40;;;;;;5091620;28;20507;-70
2023/10/01 06:49:19;;;;;;;6.40;4.97;;;24.30;67.30;;;;;;5099831;27;20452;-71
2023/10/01 06:51:50;;;;;;;7.83;5.20;;;24.30;67.60;;;;;;5105312;27;20545;-68
2023/10/01 06:54:19;;;;;;;8.47;4.37;;;24.30;67.40;;;;;;5102107;27;20454;-72
2023/10/01 06:56:48;;;;;;;9.33;6.27;;;24.30;67.50;;;;;;5103467;28;20484;-72
2023/10/01 06:59:17;;;;;;;7.60;4.80;;;24.30;67.40;;;;;;5094026;28;20546;-70
2023/10/01 07:01:49;;;;;;;6.60;4.60;;;24.30;68.10;;;;;;5099893;28;20473;-71
2023/10/01 07:04:23;;;;;;;5.23;4.43;;;24.40;67.60;;;;;;5100974;28;21158;-71
2023/10/01 07:06:53;;;;;;;5.10;4.60;;;24.40;67.40;;;;;;5100718;28;20792;-70
2023/10/01 07:12:09;;;;;;;6.20;4.20;;;24.40;67.10;;;;;;5100138;27;20525;-71
2023/10/01 07:14:44;;;;;;;5.57;4.90;;;24.40;67.20;;;;;;5094675;28;20495;-73
2023/10/01 07:17:14;;;;;;;4.30;3.60;;;24.40;67.10;;;;;;5097602;27;20470;-72
2023/10/01 07:19:59;;;;;;;5.37;4.53;;;24.40;67.20;;;;;;5097554;28;20835;-71
2023/10/01 07:22:30;;;;;;;7.43;3.90;;;24.40;67.10;;;;;;5100541;28;20459;-70
2023/10/01 07:25:00;;;;;;;5.27;4.00;;;24.40;67.10;;;;;;5095445;28;20861;-71
2023/10/01 07:27:29;;;;;;;6.60;4.13;;;24.40;67.10;;;;;;5102162;28;20452;-71
2023/10/01 07:30:00;;;;;;;5.43;4.83;;;24.40;67.10;;;;;;5094520;28;20487;-71
2023/10/01 07:32:41;;;;;;;6.60;4.67;;;24.50;67.10;;;;;;5104058;27;20464;-72
2023/10/01 07:35:13;;;;;;;6.10;4.60;;;24.50;67.00;;;;;;5105553;28;21036;-71
2023/10/01 07:37:42;;;;;;;5.50;4.53;;;24.50;66.90;;;;;;5104329;28;20512;-71
2023/10/01 07:40:16;;;;;;;6.53;4.83;;;24.50;66.90;;;;;;5096670;28;20454;-71
2023/10/01 07:42:47;;;;;;;5.70;4.50;;;24.50;66.90;;;;;;5100371;28;20468;-73
2023/10/01 07:45:17;;;;;;;6.07;4.10;;;24.50;66.90;;;;;;5096164;27;20524;-71
2023/10/01 07:47:46;;;;;;;5.40;4.40;;;24.50;66.90;;;;;;5091543;28;21360;-71
2023/10/01 07:50:16;;;;;;;5.73;4.17;;;24.50;66.90;;;;;;5091630;28;20441;-72
2023/10/01 07:52:46;;;;;;;6.30;4.63;;;24.50;66.90;;;;;;5091289;28;20554;-72
2023/10/01 07:55:35;;;;;;;7.70;4.80;;;24.50;66.90;;;;;;5096271;28;20861;-72
2023/10/01 07:58:23;;;;;;;5.10;4.23;;;24.50;66.90;;;;;;5096946;28;20483;-71
2023/10/01 08:00:59;;;;;;;4.33;3.90;;;24.60;66.90;;;;;;5101360;27;20564;-72
2023/10/01 08:03:32;;;;;;;4.63;4.23;;;24.60;66.90;;;;;;5098357;28;20512;-72
2023/10/01 08:06:16;;;;;;;4.90;4.50;;;24.60;66.80;;;;;;5096627;28;20469;-72
2023/10/01 08:08:47;;;;;;;5.63;4.23;;;24.60;66.80;;;;;;5095420;28;20472;-72
2023/10/01 08:14:05;;;;;;;5.00;3.83;;;24.60;66.80;;;;;;5095103;28;20898;-71
2023/10/01 08:16:47;;;;;;;4.50;4.10;;;24.60;66.80;;;;;;5096479;28;20460;-70
2023/10/01 08:19:20;;;;;;;4.50;3.57;;;24.60;66.80;;;;;;5099580;28;20462;-71
2023/10/01 08:21:53;;;;;;;5.87;4.30;;;24.60;66.70;;;;;;5095581;28;20470;-69
2023/10/01 08:24:29;;;;;;;5.57;4.63;;;24.60;66.80;;;;;;5080301;28;20791;-70
2023/10/01 08:27:01;;;;;;;6.83;4.70;;;24.60;66.80;;;;;;5105480;28;20997;-69
2023/10/01 08:29:28;;;;;;;4.83;4.00;;;24.60;66.80;;;;;;5100102;27;20487;-69
2023/10/01 08:32:09;;;;;;;6.87;4.73;;;24.60;66.80;;;;;;5109003;28;20466;-69
2023/10/01 08:35:01;;;;;;;7.20;4.47;;;24.60;66.80;;;;;;5093777;28;20455;-69
2023/10/01 08:37:32;;;;;;;7.40;4.10;;;24.60;66.80;;;;;;5101248;28;20455;-69
2023/10/01 08:39:59;;;;;;;9.57;4.20;;;24.70;66.80;;;;;;5092481;28;20962;-68
2023/10/01 08:42:30;;;;;;;5.17;4.50;;;24.70;66.80;;;;;;5099864;28;20555;-68
2023/10/01 08:45:03;;;;;;;5.67;4.50;;;24.70;66.80;;;;;;5098452;28;20472;-68
2023/10/01 08:47:35;;;;;;;3.60;3.30;;;24.70;66.80;;;;;;5101743;28;20485;-70
2023/10/01 08:50:19;;;;;;;4.77;4.10;;;24.70;66.80;;;;;;5102005;28;20449;-69
2023/10/01 08:52:56;;;;;;;5.40;3.70;;;24.70;66.80;;;;;;5093725;28;20456;-69
2023/10/01 08:55:35;;;;;;;7.07;4.00;;;24.70;66.80;;;;;;5102767;28;20540;-71
2023/10/01 08:58:14;;;;;;;9.20;5.23;;;24.70;66.80;;;;;;5089050;28;20555;-70
2023/10/01 09:00:48;;;;;;;6.23;4.63;;;24.70;66.90;;;;;;5100518;28;20519;-68
2023/10/01 09:03:26;;;;;;;7.37;4.43;;;24.70;66.90;;;;;;5099297;28;20851;-71
2023/10/01 09:06:03;;;;;;;7.33;5.10;;;24.70;67.00;;;;;;5102165;28;20947;-69
2023/10/01 09:08:42;;;;;;;8.30;4.50;;;24.70;67.00;;;;;;5092462;28;20477;-69
2023/10/01 09:11:12;;;;;;;8.13;5.53;;;24.70;67.00;;;;;;5103813;27;20489;-69
2023/10/01 09:13:54;;;;;;;8.40;5.23;;;24.70;67.00;;;;;;5104341;27;20457;-68
2023/10/01 09:16:30;;;;;;;6.20;4.53;;;24.70;67.10;;;;;;5104254;28;20458;-69
2023/10/01 09:19:29;;;;;;;7.53;4.40;;;24.80;67.10;;;;;;5098502;28;20543;-69
2023/10/01 09:21:55;;;;;;;7.30;4.33;;;24.80;67.10;;;;;;5099263;28;20465;-70
2023/10/01 09:24:39;;;;;;;8.23;4.67;;;24.80;67.10;;;;;;5100249;28;20956;-69
2023/10/01 09:27:18;;;;;;;9.13;4.77;;;24.80;67.10;;;;;;5085904;27;20472;-69
2023/10/01 09:29:48;;;;;;;6.00;4.43;;;24.80;67.10;;;;;;5093803;28;20490;-69
2023/10/01 09:32:19;;;;;;;7.30;4.37;;;24.80;67.20;;;;;;5096472;28;21020;-70
2023/10/01 09:34:58;;;;;;;6.10;4.20;;;24.80;67.10;;;;;;5096456;28;20747;-68
2023/10/01 09:37:34;;;;;;;7.43;4.80;;;24.80;67.20;;;;;;5110253;28;20937;-69
2023/10/01 09:40:32;;;;;;;7.30;5.30;;;24.80;67.20;;;;;;5099162;28;20461;-70
2023/10/01 09:42:56;;;;;;;7.10;5.33;;;24.80;67.10;;;;;;5106208;27;21034;-70
2023/10/01 09:45:34;;;;;;;10.27;4.90;;;24.80;67.10;;;;;;5094593;28;20464;-70
2023/10/01 09:48:09;;;;;;;7.23;5.30;;;24.80;67.10;;;;;;5100138;28;20455;-69
2023/10/01 09:50:43;;;;;;;10.00;4.60;;;24.90;67.10;;;;;;5105429;28;20487;-68
2023/10/01 09:53:13;;;;;;;7.20;4.27;;;24.90;67.10;;;;;;5101636;28;20478;-69
2023/10/01 09:55:55;;;;;;;9.03;4.80;;;24.90;67.10;;;;;;5099734;27;20476;-69
2023/10/01 09:58:25;;;;;;;6.20;3.90;;;24.90;67.10;;;;;;5097202;28;20468;-68
2023/10/01 10:00:54;;;;;;;6.03;4.60;;;24.90;67.10;;;;;;5104446;28;20471;-69
2023/10/01 10:03:24;;;;;;;6.17;3.87;;;24.90;67.10;;;;;;5101403;28;20514;-70
2023/10/01 10:05:53;;;;;;;7.50;4.70;;;24.90;67.10;;;;;;5096166;28;20538;-70
2023/10/01 10:08:26;;;;;;;7.30;3.90;;;25.00;67.10;;;;;;5101639;27;20465;-69
2023/10/01 10:10:57;;;;;;;7.80;4.47;;;25.00;67.10;;;;;;5100122;28;20451;-71
2023/10/01 10:13:45;;;;;;;6.37;4.80;;;25.00;67.10;;;;;;5106319;28;20457;-73
2023/10/01 10:16:31;;;;;;;7.20;4.30;;;25.00;67.20;;;;;;5104885;28;20457;-69
2023/10/01 10:19:05;;;;;;;4.73;3.97;;;25.00;67.10;;;;;;5104355;28;20445;-71
2023/10/01 10:22:10;;;;;;;5.63;4.13;;;25.00;67.10;;;;;;5108606;28;20457;-70
2023/10/01 10:24:45;;;;;;;3.83;3.53;;;25.00;67.10;;;;;;5103245;27;20455;-70
2023/10/01 10:27:49;;;;;;;7.53;4.57;;;25.00;67.10;;;;;;5101596;28;20954;-69
2023/10/01 10:30:21;;;;;;;4.30;3.90;;;25.10;67.00;;;;;;5106112;28;21098;-74
2023/10/01 10:33:42;;;;;;;6.00;4.40;;;25.10;66.90;;;;;;5106396;28;20460;-71
2023/10/01 10:36:58;;;;;;;8.17;4.00;;;25.20;66.70;;;;;;5101268;28;20459;-72
2023/10/01 10:40:02;;;;;;;8.57;4.00;;;25.30;66.50;;;;;;5105435;27;20483;-70
2023/10/01 10:42:33;;;;;;;5.43;4.20;;;25.40;66.20;;;;;;5105188;28;20465;-71
2023/10/01 10:45:24;;;;;;;7.07;4.37;;;25.50;66.00;;;;;;5103344;27;20468;-71
2023/10/01 10:48:01;;;;;;;6.37;4.50;;;25.80;65.50;;;;;;5096283;28;20542;-69
2023/10/01 10:50:48;;;;;;;6.00;3.87;;;26.10;65.00;;;;;;5102305;27;20444;-71
2023/10/01 10:53:20;;;;;;;6.70;4.43;;;26.50;64.20;;;;;;5109061;28;20501;-70
2023/10/01 10:56:02;;;;;;;5.80;4.13;;;26.70;63.70;;;;;;5096296;28;20460;-70
2023/10/01 10:58:37;;;;;;;7.57;4.07;;;26.90;63.30;;;;;;5097375;28;20484;-70
2023/10/01 11:01:19;;;;;;;4.63;3.87;;;27.00;62.90;;;;;;5098414;28;20461;-73
2023/10/01 11:03:49;;;;;;;5.60;4.43;;;27.20;62.50;;;;;;5093704;27;20496;-73
2023/10/01 11:06:22;;;;;;;6.33;4.60;;;27.30;62.30;;;;;;5100327;27;20448;-73
2023/10/01 11:08:52;;;;;;;4.77;3.70;;;27.30;62.10;;;;;;5094521;28;20804;-69
2023/10/01 11:11:28;;;;;;;4.63;4.07;;;27.40;62.00;;;;;;5097249;28;20458;-69
2023/10/01 11:14:05;;;;;;;8.10;4.27;;;27.50;61.90;;;;;;5104001;28;20454;-69
2023/10/01 11:16:36;;;;;;;4.20;3.47;;;27.50;61.80;;;;;;5090097;28;20459;-69
2023/10/01 11:19:16;;;;;;;4.23;3.83;;;27.50;61.80;;;;;;5101863;28;20467;-71
2023/10/01 11:21:58;;;;;;;7.33;4.57;;;27.50;61.80;;;;;;5097394;28;20837;-69
2023/10/01 11:24:32;;;;;;;5.90;4.23;;;27.40;61.90;;;;;;5103141;28;20497;-70
2023/10/01 11:27:22;;;;;;;7.00;4.47;;;27.40;62.00;;;;;;5093485;28;20462;-69
2023/10/01 11:30:12;;;;;;;5.53;4.50;;;27.40;62.00;;;;;;5096636;28;20500;-69
2023/10/01 11:32:59;;;;;;;6.70;4.40;;;27.40;62.00;;;;;;5091290;28;20804;-69
2023/10/01 11:35:34;;;;;;;6.00;4.10;;;27.40;61.90;;;;;;5089947;28;20502;-72
2023/10/01 11:38:09;;;;;;;5.40;4.40;;;27.50;61.80;;;;;;5091031;28;20507;-70
2023/10/01 11:43:32;;;;;;;5.60;4.80;;;27.50;61.80;;;;;;5106708;28;20472;-70
2023/10/01 11:46:20;;;;;;;5.70;3.90;;;27.50;61.80;;;;;;5107527;28;20457;-69
2023/10/01 11:48:59;;;;;;;6.03;3.90;;;27.50;61.80;;;;;;5107324;27;20463;-69
2023/10/01 11:51:43;;;;;;;5.93;4.00;;;27.50;61.80;;;;;;5108215;28;20542;-69
2023/10/01 11:54:14;;;;;;;6.17;4.80;;;27.60;61.70;;;;;;5103356;27;20461;-70
2023/10/01 11:56:45;;;;;;;6.03;4.30;;;27.60;61.60;;;;;;5102248;28;21004;-70
2023/10/01 11:59:21;;;;;;;5.57;4.60;;;27.60;61.60;;;;;;5095564;27;20998;-70
2023/10/01 12:01:52;;;;;;;4.73;4.27;;;27.70;61.60;;;;;;5100663;27;20472;-70
2023/10/01 12:04:43;;;;;;;4.60;4.20;;;27.70;61.50;;;;;;5100130;27;20471;-72
2023/10/01 12:07:16;;;;;;;5.07;3.70;;;27.70;61.50;;;;;;5094454;28;20924;-69
2023/10/01 12:09:49;;;;;;;5.13;4.40;;;27.70;61.60;;;;;;5106834;28;20530;-70
2023/10/01 12:12:18;;;;;;;5.33;3.73;;;27.70;61.60;;;;;;5105161;28;20534;-69
2023/10/01 12:14:56;;;;;;;5.60;4.73;;;27.70;61.50;;;;;;5104645;28;20479;-70
2023/10/01 12:17:28;;;;;;;5.10;4.20;;;27.70;61.40;;;;;;5099284;28;20454;-69
2023/10/01 12:19:59;;;;;;;5.47;4.20;;;27.80;61.40;;;;;;5091986;28;20466;-69
2023/10/01 12:22:30;;;;;;;4.37;3.97;;;27.80;61.40;;;;;;5100831;28;20550;-71
2023/10/01 12:24:59;;;;;;;5.60;4.43;;;27.80;61.40;;;;;;5090272;28;21349;-73
2023/10/01 12:33:02;;;;;;;5.43;4.23;;;27.80;61.40;;;;;;5082415;28;20543;-71
2023/10/01 12:35:34;;;;;;;5.73;4.13;;;27.90;61.30;;;;;;5100918;28;20464;-71
2023/10/01 12:38:22;;;;;;;4.10;3.70;;;27.80;61.40;;;;;;5102615;27;20518;-70
2023/10/01 12:40:54;;;;;;;5.67;4.50;;;27.80;61.30;;;;;;5107740;28;20450;-70
2023/10/01 12:43:36;;;;;;;4.27;3.40;;;27.80;61.40;;;;;;5101081;28;20472;-70
2023/10/01 12:46:10;;;;;;;7.33;3.93;;;27.80;61.40;;;;;;5104475;27;20943;-72
2023/10/01 12:49:12;;;;;;;4.50;3.80;;;27.80;61.60;;;;;;5116154;28;20987;-71
2023/10/01 12:51:34;;;;;;;4.97;4.40;;;27.80;61.50;;;;;;5107347;28;20488;-70
2023/10/01 12:54:06;;;;;;;6.53;3.80;;;27.70;61.60;;;;;;5111457;28;20442;-69
2023/10/01 12:57:03;;;;;;;8.97;4.73;;;27.70;61.60;;;;;;5106238;28;20454;-71
2023/10/01 12:59:39;;;;;;;9.93;4.30;;;27.70;61.70;;;;;;5117306;27;20861;-71
2023/10/01 13:02:22;;;;;;;6.90;4.60;;;27.70;61.70;;;;;;5108393;27;20464;-71
2023/10/01 13:05:16;;;;;;;4.67;4.13;;;27.70;61.70;;;;;;5108260;28;20963;-69
2023/10/01 13:07:45;;;;;;;6.53;4.13;;;27.60;61.90;;;;;;5111637;28;20455;-70
2023/10/01 13:10:16;;;;;;;4.27;3.43;;;27.60;62.00;;;;;;5107079;27;20518;-72
2023/10/01 13:12:55;;;;;;;4.20;3.77;;;27.50;62.10;;;;;;5110240;28;20451;-69
2023/10/01 13:15:33;;;;;;;6.00;4.30;;;27.50;62.20;;;;;;5108641;27;20885;-71
2023/10/01 13:18:04;;;;;;;5.53;4.07;;;27.40;62.40;;;;;;5105557;28;20554;-73
2023/10/01 13:20:46;;;;;;;5.17;4.10;;;27.40;62.40;;;;;;5108677;28;20449;-70
2023/10/01 13:23:14;;;;;;;6.50;3.67;;;27.30;62.60;;;;;;5107688;27;20783;-68
2023/10/01 13:25:47;;;;;;;4.57;4.17;;;27.30;62.80;;;;;;5106712;28;20953;-68
2023/10/01 13:28:19;;;;;;;5.03;3.90;;;27.20;63.00;;;;;;5112405;27;20535;-69
2023/10/01 13:31:04;;;;;;;4.13;3.77;;;27.20;63.00;;;;;;5109603;28;20936;-69
2023/10/01 13:33:53;;;;;;;6.00;3.60;;;27.10;63.20;;;;;;5111606;28;20500;-69
2023/10/01 13:36:35;;;;;;;4.10;3.33;;;27.00;63.30;;;;;;5106710;28;20447;-69
2023/10/01 13:39:15;;;;;;;3.90;3.60;;;27.00;63.50;;;;;;5107558;27;20532;-71
2023/10/01 14:09:51;;;;;;;5.67;3.87;;;26.80;63.80;;;;;;5099388;28;20951;-70
2023/10/01 14:15:05;;;;;;;5.10;3.97;;;26.80;63.80;;;;;;5100107;27;20458;-69